createdAt,value
2022-09-20T00:01:32.660Z,98681.22
2022-09-20T00:04:02.381Z,98678.78
2022-09-20T00:06:31.602Z,98681.47
2022-09-20T00:08:59.743Z,98671.41
2022-09-20T00:11:31.212Z,98679.84
2022-09-20T00:14:00.651Z,98685.78
2022-09-20T00:16:32.145Z,98679.41
2022-09-20T00:19:03.956Z,98675.72
2022-09-20T00:21:34.388Z,98666.69
2022-09-20T00:24:01.765Z,98668.94
2022-09-20T00:26:29.421Z,98673.22
2022-09-20T00:28:58.252Z,98662.41
2022-09-20T00:31:25.317Z,98662.78
2022-09-20T00:34:14.427Z,98667.72
2022-09-20T00:36:42.087Z,98663.22
2022-09-20T00:39:13.987Z,98661.16
2022-09-20T00:41:41.072Z,98666.06
2022-09-20T00:44:41.137Z,98676.34
2022-09-20T00:47:37.206Z,98674.66
2022-09-20T00:50:28.259Z,98680.59
2022-09-20T00:53:11.182Z,98675.69
2022-09-20T00:55:45.575Z,98682.03
2022-09-20T00:58:13.606Z,98677.28
2022-09-20T01:00:42.378Z,98681.78
2022-09-20T01:03:12.997Z,98680.19
2022-09-20T01:05:40.974Z,98673.00
2022-09-20T01:08:09.379Z,98681.59
2022-09-20T01:10:37.117Z,98672.91
2022-09-20T01:13:05.703Z,98672.09
2022-09-20T01:15:34.433Z,98688.56
2022-09-20T01:18:03.348Z,98679.81
2022-09-20T01:20:41.999Z,98674.16
2022-09-20T01:23:20.725Z,98678.94
2022-09-20T01:26:12.375Z,98680.09
2022-09-20T01:28:42.354Z,98677.31
2022-09-20T01:31:34.099Z,98673.81
2022-09-20T01:34:09.717Z,98670.88
2022-09-20T01:36:54.335Z,98670.66
2022-09-20T01:39:39.538Z,98669.78
2022-09-20T01:42:10.304Z,98662.13
2022-09-20T01:45:01.757Z,98665.28
2022-09-20T01:47:38.874Z,98670.72
2022-09-20T01:50:33.393Z,98659.19
2022-09-20T01:53:27.091Z,98658.69
2022-09-20T01:56:20.544Z,98658.66
2022-09-20T01:59:40.572Z,98656.97
2022-09-20T02:02:39.439Z,98660.91
2022-09-20T02:05:34.312Z,98664.13
2022-09-20T02:08:08.291Z,98663.97
2022-09-20T02:10:53.400Z,98664.88
2022-09-20T02:13:58.855Z,98659.75
2022-09-20T02:16:54.181Z,98652.94
2022-09-20T02:20:06.044Z,98662.94
2022-09-20T02:23:29.415Z,98651.69
2022-09-20T02:26:27.792Z,98658.03
2022-09-20T02:29:15.905Z,98655.78
2022-09-20T02:32:26.888Z,98654.03
2022-09-20T02:35:19.542Z,98657.94
2022-09-20T02:38:07.238Z,98663.28
2022-09-20T02:41:28.438Z,98663.88
2022-09-20T02:44:09.355Z,98663.03
2022-09-20T02:47:09.880Z,98655.88
2022-09-20T02:50:40.840Z,98665.31
2022-09-20T02:53:38.180Z,98664.78
2022-09-20T02:56:28.610Z,98671.22
2022-09-20T02:59:10.039Z,98669.94
2022-09-20T03:02:27.588Z,98671.97
2022-09-20T03:05:58.611Z,98670.88
2022-09-20T03:08:44.298Z,98674.16
2022-09-20T03:11:58.719Z,98679.25
2022-09-20T03:14:40.823Z,98674.41
2022-09-20T03:17:33.400Z,98678.88
2022-09-20T03:20:31.055Z,98683.97
2022-09-20T03:23:51.833Z,98677.84
2022-09-20T03:26:43.756Z,98681.81
2022-09-20T03:29:51.314Z,98680.09
2022-09-20T03:32:58.906Z,98685.84
2022-09-20T03:35:50.461Z,98687.75
2022-09-20T03:38:35.393Z,98678.94
2022-09-20T03:41:29.108Z,98684.03
2022-09-20T03:44:48.910Z,98683.59
2022-09-20T03:47:58.993Z,98687.38
2022-09-20T03:50:48.050Z,98680.69
2022-09-20T03:53:57.103Z,98686.00
2022-09-20T03:57:25.860Z,98683.53
2022-09-20T04:00:11.782Z,98689.69
2022-09-20T04:03:28.405Z,98690.72
2022-09-20T04:06:34.276Z,98683.94
2022-09-20T04:09:32.343Z,98690.00
2022-09-20T04:12:23.018Z,98692.16
2022-09-20T04:15:13.063Z,98699.03
2022-09-20T04:18:11.378Z,98689.09
2022-09-20T04:20:47.886Z,98692.91
2022-09-20T04:23:48.415Z,98693.34
2022-09-20T04:26:24.700Z,98694.97
2022-09-20T04:29:05.695Z,98693.53
2022-09-20T04:31:46.922Z,98696.16
2022-09-20T04:34:51.558Z,98696.34
2022-09-20T04:37:26.967Z,98685.78
2022-09-20T04:40:34.369Z,98696.41
2022-09-20T04:43:23.760Z,98699.53
2022-09-20T04:46:35.666Z,98691.09
2022-09-20T04:49:27.394Z,98698.88
2022-09-20T04:52:12.391Z,98700.34
2022-09-20T04:55:18.786Z,98716.47
2022-09-20T04:58:38.759Z,98727.91
2022-09-20T05:01:50.150Z,98718.47
2022-09-20T05:04:36.936Z,98726.75
2022-09-20T05:07:45.841Z,98732.16
2022-09-20T05:10:49.760Z,98723.13
2022-09-20T05:13:52.937Z,98731.69
2022-09-20T05:17:20.568Z,98733.34
2022-09-20T05:20:18.975Z,98734.84
2022-09-20T05:22:57.647Z,98738.66
2022-09-20T05:25:56.774Z,98740.53
2022-09-20T05:29:01.794Z,98738.41
2022-09-20T05:32:06.548Z,98737.41
2022-09-20T05:34:44.339Z,98741.03
2022-09-20T05:37:45.434Z,98737.16
2022-09-20T05:40:49.802Z,98742.53
2022-09-20T05:43:48.754Z,98749.47
2022-09-20T05:46:50.339Z,98744.56
2022-09-20T05:49:52.408Z,98751.91
2022-09-20T05:52:41.339Z,98753.53
2022-09-20T05:55:46.749Z,98762.22
2022-09-20T05:58:44.411Z,98755.44
2022-09-20T06:01:42.761Z,98761.13
2022-09-20T06:04:47.408Z,98762.28
2022-09-20T06:07:52.030Z,98759.25
2022-09-20T06:10:39.799Z,98758.38
2022-09-20T06:13:33.021Z,98751.38
2022-09-20T06:16:11.116Z,98760.50
2022-09-20T06:19:11.875Z,98763.94
2022-09-20T06:21:59.822Z,98771.69
2022-09-20T06:24:51.857Z,98762.50
2022-09-20T06:27:28.550Z,98767.78
2022-09-20T06:30:02.204Z,98771.66
2022-09-20T06:32:29.317Z,98774.91
2022-09-20T06:34:56.312Z,98768.75
2022-09-20T06:38:09.734Z,98784.56
2022-09-20T06:41:05.209Z,98783.22
2022-09-20T06:43:32.293Z,98778.22
2022-09-20T06:46:00.435Z,98777.13
2022-09-20T06:48:29.831Z,98781.56
2022-09-20T06:50:57.177Z,98786.31
2022-09-20T06:53:32.692Z,98791.97
2022-09-20T06:56:00.969Z,98784.56
2022-09-20T06:58:28.387Z,98792.78
2022-09-20T07:00:55.497Z,98783.66
2022-09-20T07:03:22.536Z,98787.06
2022-09-20T07:05:50.109Z,98785.28
2022-09-20T07:08:17.387Z,98788.97
2022-09-20T07:10:44.911Z,98792.84
2022-09-20T07:13:13.862Z,98787.78
2022-09-20T07:15:41.351Z,98789.84
2022-09-20T07:18:08.288Z,98787.78
2022-09-20T07:20:35.506Z,98802.84
2022-09-20T07:23:03.823Z,98799.19
2022-09-20T07:25:31.881Z,98803.47
2022-09-20T07:27:58.914Z,98809.53
2022-09-20T07:30:25.954Z,98811.13
2022-09-20T07:32:52.927Z,98813.19
2022-09-20T07:35:19.989Z,98810.84
2022-09-20T07:37:47.879Z,98807.09
2022-09-20T07:40:15.016Z,98813.06
2022-09-20T07:42:42.144Z,98811.13
2022-09-20T07:45:10.105Z,98812.47
2022-09-20T07:47:41.160Z,98821.22
2022-09-20T07:50:09.898Z,98822.72
2022-09-20T07:52:36.984Z,98821.59
2022-09-20T07:55:04.211Z,98832.28
2022-09-20T07:57:37.238Z,98822.16
2022-09-20T08:00:07.669Z,98828.78
2022-09-20T08:02:39.711Z,98829.41
2022-09-20T08:05:07.791Z,98825.63
2022-09-20T08:07:34.948Z,98832.59
2022-09-20T08:10:02.666Z,98843.88
2022-09-20T08:15:17.729Z,98840.00
2022-09-20T08:17:48.430Z,98844.72
2022-09-20T08:20:15.620Z,98839.47
2022-09-20T08:22:43.333Z,98839.75
2022-09-20T08:25:10.446Z,98839.63
2022-09-20T08:27:37.618Z,98837.75
2022-09-20T08:30:05.757Z,98845.53
2022-09-20T08:32:33.394Z,98841.78
2022-09-20T08:35:00.483Z,98845.81
2022-09-20T08:37:27.427Z,98845.03
2022-09-20T08:39:58.306Z,98841.94
2022-09-20T08:42:37.678Z,98834.50
2022-09-20T08:45:22.203Z,98831.09
2022-09-20T08:48:05.749Z,98832.59
2022-09-20T08:50:34.548Z,98830.28
2022-09-20T08:53:05.996Z,98825.16
2022-09-20T08:55:37.504Z,98826.59
2022-09-20T08:58:08.479Z,98830.28
2022-09-20T09:00:38.431Z,98825.31
2022-09-20T09:03:12.075Z,98827.22
2022-09-20T09:05:52.731Z,98821.00
2022-09-20T09:08:29.314Z,98824.94
2022-09-20T09:11:00.145Z,98813.44
2022-09-20T09:13:39.745Z,98819.19
2022-09-20T09:16:22.020Z,98817.56
2022-09-20T09:18:50.559Z,98825.22
2022-09-20T09:21:22.232Z,98826.34
2022-09-20T09:24:16.065Z,98825.34
2022-09-20T09:26:43.494Z,98819.19
2022-09-20T09:29:21.284Z,98819.22
2022-09-20T09:31:51.843Z,98816.69
2022-09-20T09:34:38.914Z,98810.94
2022-09-20T09:37:06.019Z,98808.88
2022-09-20T09:39:38.497Z,98811.63
2022-09-20T09:42:28.789Z,98813.47
2022-09-20T09:45:27.005Z,98810.50
2022-09-20T09:47:55.641Z,98813.94
2022-09-20T09:50:30.886Z,98810.78
2022-09-20T09:53:14.942Z,98808.31
2022-09-20T09:56:14.503Z,98821.25
2022-09-20T09:59:17.566Z,98808.53
2022-09-20T10:02:10.984Z,98803.16
2022-09-20T10:05:13.407Z,98802.19
2022-09-20T10:08:12.288Z,98810.84
2022-09-20T10:11:24.442Z,98811.41
2022-09-20T10:14:34.302Z,98805.63
2022-09-20T10:17:28.736Z,98803.72
2022-09-20T10:20:28.086Z,98809.13
2022-09-20T10:23:51.556Z,98806.03
2022-09-20T10:26:47.418Z,98802.75
2022-09-20T10:30:09.384Z,98798.47
2022-09-20T10:33:10.912Z,98799.69
2022-09-20T10:36:12.719Z,98796.94
2022-09-20T10:38:57.255Z,98797.22
2022-09-20T10:41:52.094Z,98792.50
2022-09-20T10:44:19.217Z,98799.50
2022-09-20T10:47:15.163Z,98800.25
2022-09-20T10:50:09.734Z,98797.41
2022-09-20T10:53:18.083Z,98802.16
2022-09-20T10:55:51.284Z,98796.81
2022-09-20T10:58:35.703Z,98798.47
2022-09-20T11:01:36.353Z,98798.63
2022-09-20T11:04:21.915Z,98806.47
2022-09-20T11:07:09.815Z,98801.13
2022-09-20T11:10:17.160Z,98812.22
2022-09-20T11:12:55.607Z,98796.22
2022-09-20T11:16:08.871Z,98802.28
2022-09-20T11:18:55.355Z,98800.88
2022-09-20T11:21:34.704Z,98799.66
2022-09-20T11:24:37.163Z,98795.03
2022-09-20T11:27:14.367Z,98790.56
2022-09-20T11:30:08.519Z,98786.34
2022-09-20T11:33:03.120Z,98781.41
2022-09-20T11:35:50.086Z,98779.81
2022-09-20T11:38:28.591Z,98785.38
2022-09-20T11:41:06.273Z,98794.75
2022-09-20T11:43:35.405Z,98790.44
2022-09-20T11:46:07.385Z,98786.25
2022-09-20T11:48:45.460Z,98778.56
2022-09-20T11:51:58.007Z,98777.50
2022-09-20T11:54:52.462Z,98781.44
2022-09-20T11:57:19.452Z,98776.28
2022-09-20T11:59:57.193Z,98780.97
2022-09-20T12:02:32.200Z,98783.25
2022-09-20T12:05:01.965Z,98787.78
2022-09-20T12:07:41.631Z,98779.72
2022-09-20T12:10:25.683Z,98783.00
2022-09-20T12:13:00.232Z,98782.94
2022-09-20T12:15:41.873Z,98781.03
2022-09-20T12:18:33.106Z,98775.19
2022-09-20T12:21:07.150Z,98780.84
2022-09-20T12:23:43.039Z,98773.59
2022-09-20T12:26:39.922Z,98776.91
2022-09-20T12:29:25.196Z,98766.16
2022-09-20T12:31:57.965Z,98762.72
2022-09-20T12:34:25.336Z,98767.09
2022-09-20T12:36:54.928Z,98754.78
2022-09-20T12:39:29.434Z,98744.25
2022-09-20T12:42:11.695Z,98753.19
2022-09-20T12:44:42.001Z,98751.09
2022-09-20T12:47:12.064Z,98766.69
2022-09-20T12:50:06.904Z,98768.41
2022-09-20T12:53:03.935Z,98777.63
2022-09-20T12:55:49.760Z,98787.13
2022-09-20T12:58:45.810Z,98786.75
2022-09-20T13:01:14.650Z,98783.53
2022-09-20T13:03:50.271Z,98788.00
2022-09-20T13:06:20.475Z,98782.28
2022-09-20T13:09:07.447Z,98778.44
2022-09-20T13:11:43.975Z,98779.63
2022-09-20T13:14:27.160Z,98780.03
2022-09-20T13:17:06.910Z,98780.94
2022-09-20T13:19:46.981Z,98780.78
2022-09-20T13:22:33.040Z,98782.66
2022-09-20T13:25:05.398Z,98776.69
2022-09-20T13:27:47.888Z,98778.16
2022-09-20T13:30:32.792Z,98770.00
2022-09-20T13:33:24.538Z,98768.06
2022-09-20T13:35:57.208Z,98772.66
2022-09-20T13:38:29.969Z,98763.41
2022-09-20T13:41:07.251Z,98763.00
2022-09-20T13:43:41.070Z,98754.44
2022-09-20T13:46:10.444Z,98757.41
2022-09-20T13:48:38.006Z,98756.59
2022-09-20T13:51:17.006Z,98748.09
2022-09-20T13:53:47.319Z,98750.34
2022-09-20T13:56:29.834Z,98754.22
2022-09-20T13:59:00.968Z,98746.97
2022-09-20T14:01:34.349Z,98743.03
2022-09-20T14:04:14.875Z,98742.34
2022-09-20T14:06:42.576Z,98750.94
2022-09-20T14:09:21.479Z,98744.16
2022-09-20T14:11:51.802Z,98747.38
2022-09-20T14:14:22.339Z,98759.22
2022-09-20T14:16:50.538Z,98754.16
2022-09-20T14:19:25.765Z,98752.91
2022-09-20T14:21:53.102Z,98753.06
2022-09-20T14:24:38.175Z,98753.81
2022-09-20T14:27:23.991Z,98754.88
2022-09-20T14:29:55.275Z,98758.91
2022-09-20T14:32:38.975Z,98758.41
2022-09-20T14:35:20.324Z,98758.75
2022-09-20T14:37:50.878Z,98762.50
2022-09-20T14:40:21.821Z,98758.34
2022-09-20T14:42:58.460Z,98763.84
2022-09-20T14:45:35.299Z,98764.53
2022-09-20T14:48:26.253Z,98768.84
2022-09-20T14:51:22.333Z,98760.81
2022-09-20T14:54:12.553Z,98762.38
2022-09-20T14:56:53.127Z,98757.69
2022-09-20T14:59:21.483Z,98765.66
2022-09-20T15:02:10.278Z,98758.84
2022-09-20T15:04:38.032Z,98771.16
2022-09-20T15:07:08.796Z,98769.09
2022-09-20T15:09:35.859Z,98767.06
2022-09-20T15:12:13.649Z,98773.38
2022-09-20T15:14:41.424Z,98775.47
2022-09-20T15:17:18.059Z,98773.53
2022-09-20T15:19:46.315Z,98771.00
2022-09-20T15:22:14.087Z,98772.81
2022-09-20T15:24:41.793Z,98772.09
2022-09-20T15:27:12.165Z,98772.22
2022-09-20T15:29:39.342Z,98774.13
2022-09-20T15:32:06.717Z,98769.03
2022-09-20T15:34:33.804Z,98765.88
2022-09-20T15:37:00.873Z,98776.03
2022-09-20T15:39:28.018Z,98760.91
2022-09-20T15:41:55.088Z,98765.25
2022-09-20T15:44:22.244Z,98765.63
2022-09-20T15:46:51.200Z,98764.91
2022-09-20T15:49:18.212Z,98768.81
2022-09-20T15:51:46.279Z,98766.25
2022-09-20T15:54:14.955Z,98764.16
2022-09-20T15:56:42.401Z,98763.41
2022-09-20T15:59:11.914Z,98758.81
2022-09-20T16:01:42.091Z,98767.56
2022-09-20T16:04:21.317Z,98755.41
2022-09-20T16:06:50.321Z,98764.75
2022-09-20T16:09:18.537Z,98767.19
2022-09-20T16:11:47.209Z,98771.91
2022-09-20T16:14:14.208Z,98767.63
2022-09-20T16:16:41.301Z,98774.59
2022-09-20T16:19:23.804Z,98769.94
2022-09-20T16:21:58.667Z,98769.97
2022-09-20T16:24:29.659Z,98769.69
2022-09-20T16:26:57.598Z,98772.63
2022-09-20T16:29:25.874Z,98776.22
2022-09-20T16:31:55.394Z,98772.59
2022-09-20T16:34:32.162Z,98783.72
2022-09-20T16:37:02.543Z,98783.25
2022-09-20T16:39:30.728Z,98781.41
2022-09-20T16:42:04.946Z,98785.16
2022-09-20T16:44:37.855Z,98783.38
2022-09-20T16:47:09.915Z,98785.00
2022-09-20T16:49:37.861Z,98785.72
2022-09-20T16:52:06.518Z,98789.66
2022-09-20T16:54:33.846Z,98792.22
2022-09-20T16:57:01.303Z,98785.69
2022-09-20T16:59:28.377Z,98789.00
2022-09-20T17:01:55.574Z,98791.44
2022-09-20T17:04:23.137Z,98792.22
2022-09-20T17:06:51.486Z,98796.00
2022-09-20T17:09:19.151Z,98788.81
2022-09-20T17:11:50.036Z,98795.50
2022-09-20T17:14:19.912Z,98796.09
2022-09-20T17:16:48.254Z,98801.69
2022-09-20T17:19:18.940Z,98802.66
2022-09-20T17:21:50.394Z,98805.09
2022-09-20T17:24:22.259Z,98808.38
2022-09-20T17:26:51.093Z,98818.75
2022-09-20T17:29:20.266Z,98819.53
2022-09-20T17:31:55.215Z,98823.66
2022-09-20T17:34:24.575Z,98826.53
2022-09-20T17:36:51.885Z,98829.66
2022-09-20T17:39:18.916Z,98828.25
2022-09-20T17:41:48.605Z,98840.50
2022-09-20T17:44:16.810Z,98833.31
2022-09-20T17:46:50.026Z,98837.00
2022-09-20T17:49:24.337Z,98837.00
2022-09-20T17:51:54.835Z,98841.38
2022-09-20T17:54:23.338Z,98844.84
2022-09-20T17:56:53.471Z,98845.84
2022-09-20T17:59:20.953Z,98852.47
2022-09-20T18:01:51.884Z,98860.25
2022-09-20T18:04:20.935Z,98858.84
2022-09-20T18:06:50.691Z,98868.06
2022-09-20T18:09:24.405Z,98859.66
2022-09-20T18:11:54.260Z,98866.41
2022-09-20T18:14:31.366Z,98869.72
2022-09-20T18:17:01.444Z,98872.19
2022-09-20T18:19:35.648Z,98872.59
2022-09-20T18:22:04.101Z,98876.31
2022-09-20T18:24:31.274Z,98883.06
2022-09-20T18:27:00.501Z,98887.50
2022-09-20T18:29:28.742Z,98890.66
2022-09-20T18:31:56.877Z,98891.03
2022-09-20T18:34:34.070Z,98892.91
2022-09-20T18:37:03.663Z,98896.00
2022-09-20T18:39:33.195Z,98898.91
2022-09-20T18:42:01.127Z,98906.28
2022-09-20T18:44:31.622Z,98913.03
2022-09-20T18:47:01.353Z,98909.41
2022-09-20T18:49:29.435Z,98916.13
2022-09-20T18:51:57.245Z,98916.94
2022-09-20T18:54:24.191Z,98913.25
2022-09-20T18:56:52.080Z,98912.59
2022-09-20T18:59:22.353Z,98919.63
2022-09-20T19:01:55.407Z,98921.84
2022-09-20T19:04:59.178Z,98927.19
2022-09-20T19:07:51.577Z,98937.84
2022-09-20T19:10:28.679Z,98936.03
2022-09-20T19:13:38.305Z,98935.78
2022-09-20T19:16:38.950Z,98941.34
2022-09-20T19:19:14.818Z,98945.75
2022-09-20T19:21:41.844Z,98947.16
2022-09-20T19:24:50.093Z,98953.88
2022-09-20T19:27:17.204Z,98947.88
2022-09-20T19:29:44.707Z,98955.69
2022-09-20T19:32:21.234Z,98959.84
2022-09-20T19:34:55.777Z,98958.34
2022-09-20T19:37:48.289Z,98967.47
2022-09-20T19:40:51.732Z,98962.28
2022-09-20T19:43:55.357Z,98961.22
2022-09-20T19:46:50.189Z,98960.81
2022-09-20T19:49:29.203Z,98972.59
2022-09-20T19:51:57.083Z,98971.09
2022-09-20T19:54:24.729Z,98972.31
2022-09-20T19:56:55.637Z,98973.19
2022-09-20T19:59:25.436Z,98968.56
2022-09-20T20:01:53.835Z,98974.13
2022-09-20T20:04:21.727Z,98969.94
2022-09-20T20:07:17.198Z,98969.72
2022-09-20T20:10:02.559Z,98969.38
2022-09-20T20:12:58.224Z,98975.84
2022-09-20T20:15:50.608Z,98980.50
2022-09-20T20:18:47.572Z,98977.28
2022-09-20T20:21:32.836Z,98972.28
2022-09-20T20:24:13.512Z,98987.31
2022-09-20T20:26:40.669Z,98986.44
2022-09-20T20:29:10.191Z,98981.97
2022-09-20T20:31:37.171Z,98977.41
2022-09-20T20:34:04.644Z,98981.03
2022-09-20T20:36:31.582Z,98995.94
2022-09-20T20:38:58.575Z,98988.41
2022-09-20T20:41:27.244Z,98992.16
2022-09-20T20:43:57.400Z,98996.13
2022-09-20T20:46:25.765Z,98992.56
2022-09-20T20:48:52.920Z,98991.16
2022-09-20T20:51:22.826Z,98990.94
2022-09-20T20:53:52.960Z,98995.53
2022-09-20T20:56:29.893Z,98992.09
2022-09-20T20:59:00.517Z,98996.34
2022-09-20T21:01:31.490Z,98993.31
2022-09-20T21:04:00.219Z,99002.09
2022-09-20T21:06:31.902Z,98997.00
2022-09-20T21:08:59.589Z,98996.69
2022-09-20T21:11:31.065Z,99002.94
2022-09-20T21:13:59.868Z,99000.63
2022-09-20T21:16:30.083Z,99001.66
2022-09-20T21:18:58.214Z,99003.69
2022-09-20T21:21:34.892Z,98998.78
2022-09-20T21:24:08.111Z,99002.06
2022-09-20T21:26:37.003Z,99008.09
2022-09-20T21:29:10.893Z,99004.84
2022-09-20T21:31:41.782Z,99012.28
2022-09-20T21:34:11.090Z,99003.44
2022-09-20T21:36:41.493Z,99005.47
2022-09-20T21:39:08.812Z,99003.28
2022-09-20T21:41:38.071Z,99006.91
2022-09-20T21:44:06.609Z,99006.63
2022-09-20T21:46:43.699Z,99005.09
2022-09-20T21:49:12.462Z,99003.31
2022-09-20T21:51:45.166Z,99003.84
2022-09-20T21:54:12.182Z,99007.13
2022-09-20T21:56:40.853Z,99009.69
2022-09-20T21:59:08.054Z,99008.59
2022-09-20T22:01:40.314Z,99005.56
2022-09-20T22:04:10.368Z,99002.06
2022-09-20T22:06:43.374Z,99005.78
2022-09-20T22:09:13.979Z,99000.19
2022-09-20T22:11:47.325Z,98997.09
2022-09-20T22:14:18.211Z,99002.81
2022-09-20T22:16:47.551Z,99001.13
2022-09-20T22:19:17.639Z,98994.09
2022-09-20T22:21:48.105Z,98995.59
2022-09-20T22:24:16.329Z,99001.69
2022-09-20T22:26:49.819Z,98995.59
2022-09-20T22:29:18.240Z,98981.97
2022-09-20T22:31:47.755Z,98983.22
2022-09-20T22:34:18.332Z,98999.31
2022-09-20T22:36:46.226Z,98999.19
2022-09-20T22:39:14.264Z,99002.06
2022-09-20T22:41:42.587Z,99003.69
2022-09-20T22:44:10.670Z,98995.47
2022-09-20T22:46:38.419Z,98998.06
2022-09-20T22:49:07.043Z,98996.72
2022-09-20T22:51:34.546Z,99010.53
2022-09-20T22:54:07.032Z,99003.72
2022-09-20T22:56:34.612Z,99007.06
2022-09-20T22:59:13.550Z,99012.66
2022-09-20T23:01:44.303Z,99006.69
2022-09-20T23:04:23.371Z,99008.41
2022-09-20T23:06:54.952Z,99004.84
2022-09-20T23:09:25.722Z,99015.63
2022-09-20T23:11:52.797Z,99003.41
2022-09-20T23:14:21.615Z,99008.19
2022-09-20T23:16:49.077Z,99007.09
2022-09-20T23:19:16.533Z,99005.72
2022-09-20T23:21:44.553Z,99003.22
2022-09-20T23:24:13.924Z,99003.38
2022-09-20T23:26:41.984Z,98998.00
2022-09-20T23:29:15.331Z,98999.13
2022-09-20T23:31:46.482Z,98995.72
2022-09-20T23:34:15.477Z,99009.41
2022-09-20T23:36:43.284Z,99012.84
2022-09-20T23:39:11.741Z,99016.38
2022-09-20T23:41:39.435Z,99008.31
2022-09-20T23:44:09.666Z,99014.16
2022-09-20T23:46:37.350Z,99004.66
2022-09-20T23:49:04.835Z,99020.66
2022-09-20T23:51:32.622Z,99017.81
2022-09-20T23:53:59.632Z,99019.56
2022-09-20T23:56:27.514Z,99010.63
2022-09-20T23:58:54.743Z,99019.66
